Дата Пункты Температура Давл., мм. Влажн., % Ветер Погодные явления
Воздуха Воды Направл. Скорость
05.10.15 08:00 Одесса 17.0 19.0 757 88 Пд 1 21 час
05.10.15 05:00 Одесса 18.0 19.0 757 81 Пд 2 18 часов
05.10.15 02:00 Одесса 21.0 19.0 758 69 Пд 4 15 часов
05.10.15 11:00 Одесса 20.0 19.0 760 72 Пд 3 12 часов
05.10.15 08:00 Одесса 16.0 19.0 760 98 Пн 0 09 часов
05.10.15 05:00 Одесса 14.0 18.0 761 98 З 2 06 часов
05.10.15 02:00 Одесса 14.0 18.0 761 95 Пд-З 2 03 часа
04.10.15 08:00 Одесса 18.0 19.0 762 84 Пд-З 2 21 час
04.10.15 05:00 Одесса 19.0 19.0 763 86 Пд 2 18 часов
04.10.15 02:00 Одесса 21.0 19.0 764 73 Пд 4 15 часов
04.10.15 11:00 Одесса 20.0 18.0 765 73 Пд 3 12 часов
04.10.15 08:00 Одесса 17.0 18.0 765 77 С 1 09 часов
04.10.15 05:00 Одесса 12.0 18.0 765 91 З 2 06 часов
04.10.15 02:00 Одесса 13.0 18.0 765 85 З 1 03 часа
03.10.15 08:00 Одесса 15.0 18.0 764 66 З 2 21 час
03.10.15 05:00 Одесса 18.0 19.0 764 52 Пн 0 18 часов
03.10.15 02:00 Одесса 20.0 19.0 765 48 Пд-С 2 15 часов
03.10.15 11:00 Одесса 20.0 18.0 766 38 Пн 2 12 часов
03.10.15 08:00 Одесса 14.0 18.0 766 53 З 2 09 часов
03.10.15 05:00 Одесса 11.0 18.0 766 60 З 1 06 часов
Количество строк
351 352 353 354 355 356 357 358 359 360
Page 351 of 491